• Join FlightAware (Why Join?)
  • Login
  • US Flag 
05:00AM EST


 

Airport Tracker/Info


-or-


 

Live Flight TrackerFlight Track Log ✈ SLI2344 ✈ 19-Jul-2013 ✈ MMGL / GDL - MMTC / TRC

Flight Track Log - Related Links

Times and Time Zones

All times are in EDT time to prevent confusion due to time zone crossing. See the SLI2344 flight status page for this flight to view local times or setup timezone preferences in your user account.

Time Position Orientation Groundspeed Altitude Reporting Facility
EDT Latitude Longitude Course Direction KTS MPH feet Rate Location/Type
08:21AM 20.8508 -103.3174 359° North  Level Estimated
08:22AM 20.9605 -103.3195 359° North  Level Estimated
08:23AM 21.0702 -103.3216 359° North  Level Estimated
08:24AM 21.1798 -103.3237 359° North  Level Estimated
08:25AM 21.2895 -103.3258 359° North  Level Estimated
08:26AM 21.3992 -103.3279 359° North  Level Estimated
08:27AM 21.5088 -103.3300 359° North  Level Estimated
08:28AM 21.6185 -103.3322 359° North  Level Estimated
08:29AM 21.7282 -103.3343 359° North  Level Estimated
08:30AM 21.8379 -103.3364 359° North  Level Estimated
08:31AM 21.9475 -103.3385 359° North  Level Estimated
08:32AM 22.0572 -103.3406 359° North  Level Estimated
08:33AM 22.1669 -103.3428 359° North  Level Estimated
08:34AM 22.2765 -103.3449 359° North  Level Estimated
08:35AM 22.3862 -103.3470 359° North  Level Estimated
08:36AM 22.4959 -103.3492 359° North  Level Estimated
08:37AM 22.6055 -103.3513 359° North  Level Estimated
08:38AM 22.7152 -103.3535 359° North  Level Estimated
08:39AM 22.8249 -103.3556 359° North  Level Estimated
08:40AM 22.9345 -103.3578 359° North  Level Estimated
08:41AM 23.0442 -103.3599 359° North  Level Estimated
08:42AM 23.1539 -103.3621 359° North  Level Estimated
08:43AM 23.2636 -103.3643 359° North  Level Estimated
08:44AM 23.3732 -103.3664 359° North  Level Estimated
08:45AM 23.4829 -103.3686 359° North  Level Estimated
08:46AM 23.5926 -103.3708 359° North  Level Estimated
08:47AM 23.7022 -103.3729 359° North  Level Estimated
08:48AM 23.8119 -103.3751 359° North  Level Estimated
08:49AM 23.9216 -103.3773 359° North  Level Estimated
08:50AM 24.0312 -103.3795 359° North  Level Estimated
08:51AM 24.1409 -103.3817 359° North  Level Estimated
08:52AM 24.2506 -103.3839 359° North  Level Estimated
08:53AM 24.3603 -103.3861 359° North  Level Estimated
08:54AM 24.4699 -103.3883 359° North  Level Estimated
08:55AM 24.5796 -103.3905 359° North  Level Estimated
08:56AM 24.6893 -103.3927 359° North  Level Estimated
08:57AM 24.7989 -103.3949 359° North  Level Estimated
08:58AM 24.9086 -103.3971 359° North  Level Estimated
08:59AM 25.0183 -103.3994 359° North  Level Estimated
09:00AM 25.1280 -103.4016 359° North  Level Estimated
09:01AM 25.2376 -103.4038 359° North  Level Estimated
09:02AM 25.3473 -103.4061 359° North  Level Estimated
09:03AM 25.4570 -103.4083 359° North  Level Estimated
09:04AM 25.5666 -103.4106 359° North  Level Estimated
09:05AM 25.5683 -103.4106 359° North  Level Estimated
09:06AM 25.5683 -103.4106 234° Southwest  Level Estimated
09:07AM 25.5683 -103.4106 234° Southwest  Level Estimated
09:08AM 25.5683 -103.4106 234° Southwest  Level Estimated
09:09AM 25.5683 -103.4106 234° Southwest  Level Estimated
09:10AM 25.5683 -103.4106 234° Southwest  Level Estimated
09:11AM 25.5683 -103.4106 234° Southwest  Level Estimated
09:12AM 25.5683 -103.4106 234° Southwest  Level Estimated
09:13AM 25.5683 -103.4106 234° Southwest  Level Estimated
09:14AM 25.5683 -103.4106 234° Southwest  Level Estimated
09:15AM 25.5683 -103.4106 234° Southwest  Level Estimated
09:16AM 25.5683 -103.4106 234° Southwest  Level Estimated